sensor_id;sensor_type;location;lat;lon;timestamp;temperature;humidity
55211;DHT22;41082;52.822;6.666;2022-10-16T00:01:25;12.80;99.90
55211;DHT22;41082;52.822;6.666;2022-10-16T00:03:52;12.80;99.90
55211;DHT22;41082;52.822;6.666;2022-10-16T00:06:19;12.80;99.90
55211;DHT22;41082;52.822;6.666;2022-10-16T00:08:45;12.90;99.90
55211;DHT22;41082;52.822;6.666;2022-10-16T00:13:41;12.90;99.90
55211;DHT22;41082;52.822;6.666;2022-10-16T00:16:08;12.90;99.90
55211;DHT22;41082;52.822;6.666;2022-10-16T00:18:34;12.90;99.90
55211;DHT22;41082;52.822;6.666;2022-10-16T00:21:12;12.90;99.90
55211;DHT22;41082;52.822;6.666;2022-10-16T00:23:38;12.90;99.90
55211;DHT22;41082;52.822;6.666;2022-10-16T00:26:08;12.90;99.90
55211;DHT22;41082;52.822;6.666;2022-10-16T00:28:35;12.90;99.90
55211;DHT22;41082;52.822;6.666;2022-10-16T00:31:09;12.90;99.90
55211;DHT22;41082;52.822;6.666;2022-10-16T00:33:35;12.90;99.90
55211;DHT22;41082;52.822;6.666;2022-10-16T00:36:03;12.90;99.90
55211;DHT22;41082;52.822;6.666;2022-10-16T00:38:29;12.90;99.90
55211;DHT22;41082;52.822;6.666;2022-10-16T00:40:55;12.90;99.90
55211;DHT22;41082;52.822;6.666;2022-10-16T00:43:55;12.90;99.90
55211;DHT22;41082;52.822;6.666;2022-10-16T00:51:28;12.90;99.90
55211;DHT22;41082;52.822;6.666;2022-10-16T00:53:55;12.90;99.90
55211;DHT22;41082;52.822;6.666;2022-10-16T00:56:21;12.90;99.90
55211;DHT22;41082;52.822;6.666;2022-10-16T00:58:47;12.80;99.90
55211;DHT22;41082;52.822;6.666;2022-10-16T01:01:13;12.80;99.90
55211;DHT22;41082;52.822;6.666;2022-10-16T01:03:39;12.90;99.90
55211;DHT22;41082;52.822;6.666;2022-10-16T01:08:58;12.80;99.90
55211;DHT22;41082;52.822;6.666;2022-10-16T01:11:44;12.80;99.90
55211;DHT22;41082;52.822;6.666;2022-10-16T01:14:30;12.80;99.90
55211;DHT22;41082;52.822;6.666;2022-10-16T01:17:17;12.80;99.90
55211;DHT22;41082;52.822;6.666;2022-10-16T01:22:16;12.70;99.90
55211;DHT22;41082;52.822;6.666;2022-10-16T01:24:46;12.70;99.90
55211;DHT22;41082;52.822;6.666;2022-10-16T01:27:21;12.70;99.90
55211;DHT22;41082;52.822;6.666;2022-10-16T01:32:44;12.70;99.90
55211;DHT22;41082;52.822;6.666;2022-10-16T01:40:58;12.80;99.90
55211;DHT22;41082;52.822;6.666;2022-10-16T01:43:34;12.70;99.90
55211;DHT22;41082;52.822;6.666;2022-10-16T01:46:02;12.70;99.90
55211;DHT22;41082;52.822;6.666;2022-10-16T01:48:29;12.70;99.90
55211;DHT22;41082;52.822;6.666;2022-10-16T01:51:11;12.70;99.90
55211;DHT22;41082;52.822;6.666;2022-10-16T01:53:39;12.70;99.90
55211;DHT22;41082;52.822;6.666;2022-10-16T01:56:08;12.70;99.90
55211;DHT22;41082;52.822;6.666;2022-10-16T01:58:37;12.70;99.90
55211;DHT22;41082;52.822;6.666;2022-10-16T02:01:07;12.70;99.90
55211;DHT22;41082;52.822;6.666;2022-10-16T02:03:34;12.70;99.90
55211;DHT22;41082;52.822;6.666;2022-10-16T02:06:02;12.70;99.90
55211;DHT22;41082;52.822;6.666;2022-10-16T02:08:29;12.70;99.90
55211;DHT22;41082;52.822;6.666;2022-10-16T02:10:56;12.70;99.90
55211;DHT22;41082;52.822;6.666;2022-10-16T02:13:45;12.70;99.90
55211;DHT22;41082;52.822;6.666;2022-10-16T02:16:12;12.70;99.90
55211;DHT22;41082;52.822;6.666;2022-10-16T02:18:39;12.70;99.90
55211;DHT22;41082;52.822;6.666;2022-10-16T02:21:19;12.70;99.90
55211;DHT22;41082;52.822;6.666;2022-10-16T02:23:57;12.70;99.90
55211;DHT22;41082;52.822;6.666;2022-10-16T02:26:49;12.70;99.90
55211;DHT22;41082;52.822;6.666;2022-10-16T02:29:20;12.70;99.90
55211;DHT22;41082;52.822;6.666;2022-10-16T02:31:50;12.70;99.90
55211;DHT22;41082;52.822;6.666;2022-10-16T02:34:18;12.70;99.90
55211;DHT22;41082;52.822;6.666;2022-10-16T02:36:45;12.70;99.90
55211;DHT22;41082;52.822;6.666;2022-10-16T02:39:11;12.80;99.90
55211;DHT22;41082;52.822;6.666;2022-10-16T02:41:37;12.80;99.90
55211;DHT22;41082;52.822;6.666;2022-10-16T02:44:03;12.80;99.90
55211;DHT22;41082;52.822;6.666;2022-10-16T02:46:29;12.80;99.90
55211;DHT22;41082;52.822;6.666;2022-10-16T02:48:54;12.90;99.90
55211;DHT22;41082;52.822;6.666;2022-10-16T02:51:20;12.90;99.90
55211;DHT22;41082;52.822;6.666;2022-10-16T02:53:46;12.90;99.90
55211;DHT22;41082;52.822;6.666;2022-10-16T02:56:11;12.90;99.90
55211;DHT22;41082;52.822;6.666;2022-10-16T02:58:37;12.90;99.90
55211;DHT22;41082;52.822;6.666;2022-10-16T03:01:02;12.90;99.90
55211;DHT22;41082;52.822;6.666;2022-10-16T03:03:28;12.90;99.90
55211;DHT22;41082;52.822;6.666;2022-10-16T03:05:53;12.90;99.90
55211;DHT22;41082;52.822;6.666;2022-10-16T03:08:19;12.90;99.90
55211;DHT22;41082;52.822;6.666;2022-10-16T03:10:49;13.00;99.90
55211;DHT22;41082;52.822;6.666;2022-10-16T03:13:15;13.00;99.90
55211;DHT22;41082;52.822;6.666;2022-10-16T03:15:41;13.00;99.90
55211;DHT22;41082;52.822;6.666;2022-10-16T03:18:06;13.00;99.90
55211;DHT22;41082;52.822;6.666;2022-10-16T03:20:32;13.00;99.90
55211;DHT22;41082;52.822;6.666;2022-10-16T03:22:58;13.00;99.90
55211;DHT22;41082;52.822;6.666;2022-10-16T03:25:23;13.00;99.90
55211;DHT22;41082;52.822;6.666;2022-10-16T03:27:49;13.10;99.90
55211;DHT22;41082;52.822;6.666;2022-10-16T03:30:14;13.10;99.90
55211;DHT22;41082;52.822;6.666;2022-10-16T03:32:42;13.10;99.90
55211;DHT22;41082;52.822;6.666;2022-10-16T03:35:08;13.10;99.90
55211;DHT22;41082;52.822;6.666;2022-10-16T03:37:34;13.10;99.90
55211;DHT22;41082;52.822;6.666;2022-10-16T03:40:00;13.10;99.90
55211;DHT22;41082;52.822;6.666;2022-10-16T03:42:25;13.10;99.90
55211;DHT22;41082;52.822;6.666;2022-10-16T03:44:51;13.20;99.90
55211;DHT22;41082;52.822;6.666;2022-10-16T03:47:16;13.10;99.90
55211;DHT22;41082;52.822;6.666;2022-10-16T03:49:47;13.10;99.90
55211;DHT22;41082;52.822;6.666;2022-10-16T03:52:13;13.20;99.90
55211;DHT22;41082;52.822;6.666;2022-10-16T03:54:38;13.10;99.90
55211;DHT22;41082;52.822;6.666;2022-10-16T03:57:04;13.20;99.90
55211;DHT22;41082;52.822;6.666;2022-10-16T03:59:30;13.10;99.90
55211;DHT22;41082;52.822;6.666;2022-10-16T04:01:55;13.10;99.90
55211;DHT22;41082;52.822;6.666;2022-10-16T04:04:21;13.10;99.90
55211;DHT22;41082;52.822;6.666;2022-10-16T04:06:46;13.10;99.90
55211;DHT22;41082;52.822;6.666;2022-10-16T04:09:12;13.20;99.90
55211;DHT22;41082;52.822;6.666;2022-10-16T04:11:37;13.10;99.90
55211;DHT22;41082;52.822;6.666;2022-10-16T04:14:04;13.10;99.90
55211;DHT22;41082;52.822;6.666;2022-10-16T04:16:29;13.10;99.90
55211;DHT22;41082;52.822;6.666;2022-10-16T04:18:55;13.10;99.90
55211;DHT22;41082;52.822;6.666;2022-10-16T04:21:21;13.00;99.90
55211;DHT22;41082;52.822;6.666;2022-10-16T04:23:47;13.00;99.90
55211;DHT22;41082;52.822;6.666;2022-10-16T04:26:13;13.00;99.90
55211;DHT22;41082;52.822;6.666;2022-10-16T04:28:38;13.00;99.90
55211;DHT22;41082;52.822;6.666;2022-10-16T04:31:05;13.00;99.90
55211;DHT22;41082;52.822;6.666;2022-10-16T04:33:31;13.00;99.90
55211;DHT22;41082;52.822;6.666;2022-10-16T04:36:01;13.00;99.90
55211;DHT22;41082;52.822;6.666;2022-10-16T04:38:27;13.00;99.90
55211;DHT22;41082;52.822;6.666;2022-10-16T04:40:53;13.00;99.90
55211;DHT22;41082;52.822;6.666;2022-10-16T04:43:19;12.90;99.90
55211;DHT22;41082;52.822;6.666;2022-10-16T04:45:44;12.90;99.90
55211;DHT22;41082;52.822;6.666;2022-10-16T04:48:10;12.90;99.90
55211;DHT22;41082;52.822;6.666;2022-10-16T04:50:35;12.90;99.90
55211;DHT22;41082;52.822;6.666;2022-10-16T04:53:01;12.90;99.90
55211;DHT22;41082;52.822;6.666;2022-10-16T04:55:27;13.00;99.90
55211;DHT22;41082;52.822;6.666;2022-10-16T04:57:53;12.90;99.90
55211;DHT22;41082;52.822;6.666;2022-10-16T05:00:18;12.90;99.90
55211;DHT22;41082;52.822;6.666;2022-10-16T05:02:44;12.90;99.90
55211;DHT22;41082;52.822;6.666;2022-10-16T05:05:09;13.00;99.90
55211;DHT22;41082;52.822;6.666;2022-10-16T05:07:35;13.00;99.90
55211;DHT22;41082;52.822;6.666;2022-10-16T05:10:01;12.90;99.90
55211;DHT22;41082;52.822;6.666;2022-10-16T05:12:26;13.00;99.90
55211;DHT22;41082;52.822;6.666;2022-10-16T05:14:52;13.00;99.90
55211;DHT22;41082;52.822;6.666;2022-10-16T05:17:17;13.00;99.90
55211;DHT22;41082;52.822;6.666;2022-10-16T05:19:43;13.00;99.90
55211;DHT22;41082;52.822;6.666;2022-10-16T05:22:08;13.00;99.90
55211;DHT22;41082;52.822;6.666;2022-10-16T05:24:34;13.00;99.90
55211;DHT22;41082;52.822;6.666;2022-10-16T05:27:00;13.00;99.90
55211;DHT22;41082;52.822;6.666;2022-10-16T05:29:25;13.00;99.90
55211;DHT22;41082;52.822;6.666;2022-10-16T05:31:52;13.00;99.90
55211;DHT22;41082;52.822;6.666;2022-10-16T05:34:18;13.00;99.90
55211;DHT22;41082;52.822;6.666;2022-10-16T05:36:43;13.00;99.90
55211;DHT22;41082;52.822;6.666;2022-10-16T05:39:11;13.00;99.90
55211;DHT22;41082;52.822;6.666;2022-10-16T05:41:36;13.00;99.90
55211;DHT22;41082;52.822;6.666;2022-10-16T05:44:05;13.00;99.90
55211;DHT22;41082;52.822;6.666;2022-10-16T05:46:32;13.00;99.90
55211;DHT22;41082;52.822;6.666;2022-10-16T05:48:58;13.00;99.90
55211;DHT22;41082;52.822;6.666;2022-10-16T05:51:23;13.00;99.90
55211;DHT22;41082;52.822;6.666;2022-10-16T05:53:49;13.00;99.90
55211;DHT22;41082;52.822;6.666;2022-10-16T05:56:15;13.00;99.90
55211;DHT22;41082;52.822;6.666;2022-10-16T05:58:41;13.00;99.90
55211;DHT22;41082;52.822;6.666;2022-10-16T06:01:13;12.90;99.90
55211;DHT22;41082;52.822;6.666;2022-10-16T06:03:39;12.90;99.90
55211;DHT22;41082;52.822;6.666;2022-10-16T06:06:25;13.00;99.90
55211;DHT22;41082;52.822;6.666;2022-10-16T06:08:52;13.00;99.90
55211;DHT22;41082;52.822;6.666;2022-10-16T06:11:26;13.00;99.90
55211;DHT22;41082;52.822;6.666;2022-10-16T06:13:55;13.00;99.90
55211;DHT22;41082;52.822;6.666;2022-10-16T06:16:22;13.00;99.90
55211;DHT22;41082;52.822;6.666;2022-10-16T06:18:50;13.00;99.90
55211;DHT22;41082;52.822;6.666;2022-10-16T06:21:21;13.00;99.90
55211;DHT22;41082;52.822;6.666;2022-10-16T06:23:48;13.00;99.90
55211;DHT22;41082;52.822;6.666;2022-10-16T06:26:16;13.00;99.90
55211;DHT22;41082;52.822;6.666;2022-10-16T06:28:41;13.00;99.90
55211;DHT22;41082;52.822;6.666;2022-10-16T06:31:08;13.00;99.90
55211;DHT22;41082;52.822;6.666;2022-10-16T06:33:35;13.00;99.90
55211;DHT22;41082;52.822;6.666;2022-10-16T06:36:03;13.00;99.90
55211;DHT22;41082;52.822;6.666;2022-10-16T06:38:29;13.00;99.90
55211;DHT22;41082;52.822;6.666;2022-10-16T06:40:55;13.00;99.90
55211;DHT22;41082;52.822;6.666;2022-10-16T06:43:20;13.00;99.90
55211;DHT22;41082;52.822;6.666;2022-10-16T06:45:53;13.10;99.90
55211;DHT22;41082;52.822;6.666;2022-10-16T06:48:19;13.10;99.90
55211;DHT22;41082;52.822;6.666;2022-10-16T06:50:58;13.10;99.90
55211;DHT22;41082;52.822;6.666;2022-10-16T06:53:24;13.10;99.90
55211;DHT22;41082;52.822;6.666;2022-10-16T06:55:50;13.10;99.90
55211;DHT22;41082;52.822;6.666;2022-10-16T06:58:17;13.20;99.90
55211;DHT22;41082;52.822;6.666;2022-10-16T07:00:43;13.20;99.90
55211;DHT22;41082;52.822;6.666;2022-10-16T07:03:08;13.20;99.90
55211;DHT22;41082;52.822;6.666;2022-10-16T07:05:41;13.20;99.90
55211;DHT22;41082;52.822;6.666;2022-10-16T07:08:07;13.30;99.90
55211;DHT22;41082;52.822;6.666;2022-10-16T07:10:33;13.30;99.90
55211;DHT22;41082;52.822;6.666;2022-10-16T07:12:59;13.30;99.90
55211;DHT22;41082;52.822;6.666;2022-10-16T07:15:25;13.30;99.90
55211;DHT22;41082;52.822;6.666;2022-10-16T07:17:51;13.30;99.90
55211;DHT22;41082;52.822;6.666;2022-10-16T07:20:17;13.30;99.90
55211;DHT22;41082;52.822;6.666;2022-10-16T07:22:43;13.40;99.90
55211;DHT22;41082;52.822;6.666;2022-10-16T07:25:09;13.40;99.90
55211;DHT22;41082;52.822;6.666;2022-10-16T07:27:34;13.40;99.90
55211;DHT22;41082;52.822;6.666;2022-10-16T07:30:00;13.50;99.90
55211;DHT22;41082;52.822;6.666;2022-10-16T07:32:26;13.50;99.90
55211;DHT22;41082;52.822;6.666;2022-10-16T07:34:52;13.50;99.90
55211;DHT22;41082;52.822;6.666;2022-10-16T07:37:18;13.60;99.90
55211;DHT22;41082;52.822;6.666;2022-10-16T07:39:44;13.60;99.90
55211;DHT22;41082;52.822;6.666;2022-10-16T07:42:09;13.70;99.90
55211;DHT22;41082;52.822;6.666;2022-10-16T07:44:35;13.70;99.90
55211;DHT22;41082;52.822;6.666;2022-10-16T07:47:01;13.70;99.90
55211;DHT22;41082;52.822;6.666;2022-10-16T07:49:27;13.80;99.90
55211;DHT22;41082;52.822;6.666;2022-10-16T07:51:52;13.80;99.90
55211;DHT22;41082;52.822;6.666;2022-10-16T07:54:18;13.80;99.90
55211;DHT22;41082;52.822;6.666;2022-10-16T07:56:43;13.80;99.90
55211;DHT22;41082;52.822;6.666;2022-10-16T07:59:09;13.80;99.90
55211;DHT22;41082;52.822;6.666;2022-10-16T08:01:35;13.90;99.90
55211;DHT22;41082;52.822;6.666;2022-10-16T08:04:00;13.90;99.90
55211;DHT22;41082;52.822;6.666;2022-10-16T08:06:26;13.90;99.90
55211;DHT22;41082;52.822;6.666;2022-10-16T08:08:51;13.90;99.90
55211;DHT22;41082;52.822;6.666;2022-10-16T08:11:17;14.00;99.90
55211;DHT22;41082;52.822;6.666;2022-10-16T08:13:43;14.00;99.90
55211;DHT22;41082;52.822;6.666;2022-10-16T08:16:09;14.00;99.90
55211;DHT22;41082;52.822;6.666;2022-10-16T08:18:39;14.10;99.90
55211;DHT22;41082;52.822;6.666;2022-10-16T08:21:06;14.10;99.90
55211;DHT22;41082;52.822;6.666;2022-10-16T08:23:33;14.20;99.90
55211;DHT22;41082;52.822;6.666;2022-10-16T08:26:03;14.20;99.90
55211;DHT22;41082;52.822;6.666;2022-10-16T08:28:30;14.30;99.90
55211;DHT22;41082;52.822;6.666;2022-10-16T08:30:55;14.30;99.90
55211;DHT22;41082;52.822;6.666;2022-10-16T08:33:22;14.30;99.90
55211;DHT22;41082;52.822;6.666;2022-10-16T08:35:53;14.40;99.90
55211;DHT22;41082;52.822;6.666;2022-10-16T08:38:19;14.40;99.90
55211;DHT22;41082;52.822;6.666;2022-10-16T08:40:45;14.40;99.90
55211;DHT22;41082;52.822;6.666;2022-10-16T08:46:21;14.50;99.90
55211;DHT22;41082;52.822;6.666;2022-10-16T08:48:53;14.50;99.90
55211;DHT22;41082;52.822;6.666;2022-10-16T08:51:32;14.50;99.90
55211;DHT22;41082;52.822;6.666;2022-10-16T08:54:03;14.50;99.90
55211;DHT22;41082;52.822;6.666;2022-10-16T08:56:28;14.50;99.90
55211;DHT22;41082;52.822;6.666;2022-10-16T08:58:54;14.60;99.90
55211;DHT22;41082;52.822;6.666;2022-10-16T09:01:23;14.60;99.90
55211;DHT22;41082;52.822;6.666;2022-10-16T09:09:26;14.70;99.90
55211;DHT22;41082;52.822;6.666;2022-10-16T09:12:32;14.80;99.90
55211;DHT22;41082;52.822;6.666;2022-10-16T09:20:49;14.80;99.90
55211;DHT22;41082;52.822;6.666;2022-10-16T09:23:26;14.90;99.90
55211;DHT22;41082;52.822;6.666;2022-10-16T09:25:53;15.00;99.90
55211;DHT22;41082;52.822;6.666;2022-10-16T09:28:19;15.00;99.90
55211;DHT22;41082;52.822;6.666;2022-10-16T09:30:46;15.10;99.90
55211;DHT22;41082;52.822;6.666;2022-10-16T09:33:14;15.10;99.90
55211;DHT22;41082;52.822;6.666;2022-10-16T09:35:47;15.20;99.90
55211;DHT22;41082;52.822;6.666;2022-10-16T09:38:28;15.20;99.90
55211;DHT22;41082;52.822;6.666;2022-10-16T09:40:56;15.30;99.90
55211;DHT22;41082;52.822;6.666;2022-10-16T09:48:39;15.40;99.90
55211;DHT22;41082;52.822;6.666;2022-10-16T09:51:31;15.50;99.90
55211;DHT22;41082;52.822;6.666;2022-10-16T09:54:00;15.50;99.90
55211;DHT22;41082;52.822;6.666;2022-10-16T09:56:31;15.60;99.90
55211;DHT22;41082;52.822;6.666;2022-10-16T09:59:12;15.70;99.90
55211;DHT22;41082;52.822;6.666;2022-10-16T10:01:51;15.70;99.90
55211;DHT22;41082;52.822;6.666;2022-10-16T10:04:21;15.80;99.90
55211;DHT22;41082;52.822;6.666;2022-10-16T10:06:57;15.80;99.90
55211;DHT22;41082;52.822;6.666;2022-10-16T10:09:28;15.90;99.90
55211;DHT22;41082;52.822;6.666;2022-10-16T10:11:57;15.90;99.90
55211;DHT22;41082;52.822;6.666;2022-10-16T10:14:26;16.00;99.90
55211;DHT22;41082;52.822;6.666;2022-10-16T10:30:44;16.30;99.90
55211;DHT22;41082;52.822;6.666;2022-10-16T10:33:37;16.40;99.90
55211;DHT22;41082;52.822;6.666;2022-10-16T10:44:12;16.50;99.90
55211;DHT22;41082;52.822;6.666;2022-10-16T10:46:51;16.60;99.90
55211;DHT22;41082;52.822;6.666;2022-10-16T10:49:25;16.60;99.90
55211;DHT22;41082;52.822;6.666;2022-10-16T10:54:42;16.70;99.90
55211;DHT22;41082;52.822;6.666;2022-10-16T10:57:27;16.70;99.90
55211;DHT22;41082;52.822;6.666;2022-10-16T11:10:52;16.60;99.90
55211;DHT22;41082;52.822;6.666;2022-10-16T11:13:31;16.70;99.90
55211;DHT22;41082;52.822;6.666;2022-10-16T11:16:00;16.60;99.90
55211;DHT22;41082;52.822;6.666;2022-10-16T11:18:52;16.60;99.90
55211;DHT22;41082;52.822;6.666;2022-10-16T11:21:21;16.60;99.90
55211;DHT22;41082;52.822;6.666;2022-10-16T11:23:53;16.60;99.90
55211;DHT22;41082;52.822;6.666;2022-10-16T11:26:26;16.50;99.90
55211;DHT22;41082;52.822;6.666;2022-10-16T11:28:54;16.50;99.90
55211;DHT22;41082;52.822;6.666;2022-10-16T11:31:40;16.50;99.90
55211;DHT22;41082;52.822;6.666;2022-10-16T11:39:29;16.40;99.90
55211;DHT22;41082;52.822;6.666;2022-10-16T11:42:11;16.50;99.90
55211;DHT22;41082;52.822;6.666;2022-10-16T11:44:57;16.50;99.90
55211;DHT22;41082;52.822;6.666;2022-10-16T11:47:42;16.60;99.90
55211;DHT22;41082;52.822;6.666;2022-10-16T11:50:18;16.70;99.90
55211;DHT22;41082;52.822;6.666;2022-10-16T11:52:52;16.80;99.90
55211;DHT22;41082;52.822;6.666;2022-10-16T11:55:21;16.90;99.90
55211;DHT22;41082;52.822;6.666;2022-10-16T11:58:18;17.00;99.90
55211;DHT22;41082;52.822;6.666;2022-10-16T12:03:29;17.00;99.90
55211;DHT22;41082;52.822;6.666;2022-10-16T12:08:27;16.80;99.90
55211;DHT22;41082;52.822;6.666;2022-10-16T12:10:53;16.70;99.90
55211;DHT22;41082;52.822;6.666;2022-10-16T12:13:35;16.70;99.90
55211;DHT22;41082;52.822;6.666;2022-10-16T12:18:46;16.70;99.90
55211;DHT22;41082;52.822;6.666;2022-10-16T12:21:13;16.70;99.90
55211;DHT22;41082;52.822;6.666;2022-10-16T12:23:52;16.60;99.90
55211;DHT22;41082;52.822;6.666;2022-10-16T12:26:44;16.60;99.90
55211;DHT22;41082;52.822;6.666;2022-10-16T12:32:00;16.80;99.90
55211;DHT22;41082;52.822;6.666;2022-10-16T12:34:35;16.90;99.90
55211;DHT22;41082;52.822;6.666;2022-10-16T12:37:21;16.90;99.90
55211;DHT22;41082;52.822;6.666;2022-10-16T12:39:49;17.00;99.90
55211;DHT22;41082;52.822;6.666;2022-10-16T12:44:54;17.10;99.90
55211;DHT22;41082;52.822;6.666;2022-10-16T12:49:54;17.40;99.90
55211;DHT22;41082;52.822;6.666;2022-10-16T12:52:49;17.40;99.90
55211;DHT22;41082;52.822;6.666;2022-10-16T12:55:17;17.40;99.90
55211;DHT22;41082;52.822;6.666;2022-10-16T12:58:10;17.30;99.90
55211;DHT22;41082;52.822;6.666;2022-10-16T13:01:26;17.30;99.90
55211;DHT22;41082;52.822;6.666;2022-10-16T13:12:15;17.40;99.90
55211;DHT22;41082;52.822;6.666;2022-10-16T13:17:45;17.50;99.90
55211;DHT22;41082;52.822;6.666;2022-10-16T13:23:15;17.40;99.90
55211;DHT22;41082;52.822;6.666;2022-10-16T13:26:01;17.40;99.90
55211;DHT22;41082;52.822;6.666;2022-10-16T13:28:32;17.30;99.90
55211;DHT22;41082;52.822;6.666;2022-10-16T13:30:59;17.20;99.90
55211;DHT22;41082;52.822;6.666;2022-10-16T13:33:42;17.10;99.90
55211;DHT22;41082;52.822;6.666;2022-10-16T13:36:43;17.10;99.90
55211;DHT22;41082;52.822;6.666;2022-10-16T13:41:57;17.00;99.90
55211;DHT22;41082;52.822;6.666;2022-10-16T13:44:23;17.00;99.90
55211;DHT22;41082;52.822;6.666;2022-10-16T13:47:01;17.00;99.90
55211;DHT22;41082;52.822;6.666;2022-10-16T13:49:26;17.00;99.90
55211;DHT22;41082;52.822;6.666;2022-10-16T13:51:56;16.90;99.90
55211;DHT22;41082;52.822;6.666;2022-10-16T13:54:23;16.90;99.90
55211;DHT22;41082;52.822;6.666;2022-10-16T13:56:49;17.00;99.90
55211;DHT22;41082;52.822;6.666;2022-10-16T13:59:41;16.90;99.90
55211;DHT22;41082;52.822;6.666;2022-10-16T14:04:53;16.90;99.90
55211;DHT22;41082;52.822;6.666;2022-10-16T14:07:25;16.90;99.90
55211;DHT22;41082;52.822;6.666;2022-10-16T14:09:53;16.80;99.90
55211;DHT22;41082;52.822;6.666;2022-10-16T14:12:19;16.80;99.90
55211;DHT22;41082;52.822;6.666;2022-10-16T14:14:47;16.80;99.90
55211;DHT22;41082;52.822;6.666;2022-10-16T14:17:15;16.80;99.90
55211;DHT22;41082;52.822;6.666;2022-10-16T14:19:46;16.70;99.90
55211;DHT22;41082;52.822;6.666;2022-10-16T14:22:35;16.70;99.90
55211;DHT22;41082;52.822;6.666;2022-10-16T14:25:18;16.70;99.90
55211;DHT22;41082;52.822;6.666;2022-10-16T14:28:01;16.60;99.90
55211;DHT22;41082;52.822;6.666;2022-10-16T14:30:28;16.60;99.90
55211;DHT22;41082;52.822;6.666;2022-10-16T14:32:55;16.50;99.90
55211;DHT22;41082;52.822;6.666;2022-10-16T14:35:38;16.50;99.90
55211;DHT22;41082;52.822;6.666;2022-10-16T14:38:05;16.50;99.90
55211;DHT22;41082;52.822;6.666;2022-10-16T14:40:34;16.40;99.90
55211;DHT22;41082;52.822;6.666;2022-10-16T14:43:04;16.40;99.90
55211;DHT22;41082;52.822;6.666;2022-10-16T14:45:33;16.40;99.90
55211;DHT22;41082;52.822;6.666;2022-10-16T14:48:06;16.40;99.90
55211;DHT22;41082;52.822;6.666;2022-10-16T14:50:39;16.30;99.90
55211;DHT22;41082;52.822;6.666;2022-10-16T14:53:11;16.30;99.90
55211;DHT22;41082;52.822;6.666;2022-10-16T14:55:37;16.30;99.90
55211;DHT22;41082;52.822;6.666;2022-10-16T14:58:03;16.30;99.90
55211;DHT22;41082;52.822;6.666;2022-10-16T15:00:29;16.30;99.90
55211;DHT22;41082;52.822;6.666;2022-10-16T15:02:55;16.30;99.90
55211;DHT22;41082;52.822;6.666;2022-10-16T15:05:23;16.30;99.90
55211;DHT22;41082;52.822;6.666;2022-10-16T15:07:50;16.30;99.90
55211;DHT22;41082;52.822;6.666;2022-10-16T15:10:17;16.30;99.90
55211;DHT22;41082;52.822;6.666;2022-10-16T15:12:44;16.30;99.90
55211;DHT22;41082;52.822;6.666;2022-10-16T15:17:50;16.30;99.90
55211;DHT22;41082;52.822;6.666;2022-10-16T15:20:19;16.30;99.90
55211;DHT22;41082;52.822;6.666;2022-10-16T15:22:45;16.30;99.90
55211;DHT22;41082;52.822;6.666;2022-10-16T15:25:36;16.20;99.90
55211;DHT22;41082;52.822;6.666;2022-10-16T15:28:03;16.30;99.90
55211;DHT22;41082;52.822;6.666;2022-10-16T15:30:29;16.30;99.90
55211;DHT22;41082;52.822;6.666;2022-10-16T15:32:55;16.30;99.90
55211;DHT22;41082;52.822;6.666;2022-10-16T15:35:21;16.20;99.90
55211;DHT22;41082;52.822;6.666;2022-10-16T15:37:47;16.20;99.90
55211;DHT22;41082;52.822;6.666;2022-10-16T15:40:14;16.20;99.90
55211;DHT22;41082;52.822;6.666;2022-10-16T15:42:40;16.20;99.90
55211;DHT22;41082;52.822;6.666;2022-10-16T15:45:06;16.10;99.90
55211;DHT22;41082;52.822;6.666;2022-10-16T15:47:32;16.10;99.90
55211;DHT22;41082;52.822;6.666;2022-10-16T15:49:58;16.10;99.90
55211;DHT22;41082;52.822;6.666;2022-10-16T15:52:24;16.00;99.90
55211;DHT22;41082;52.822;6.666;2022-10-16T15:54:49;16.00;99.90
55211;DHT22;41082;52.822;6.666;2022-10-16T15:57:15;16.00;99.90
55211;DHT22;41082;52.822;6.666;2022-10-16T15:59:40;15.90;99.90
55211;DHT22;41082;52.822;6.666;2022-10-16T16:02:07;16.00;99.90
55211;DHT22;41082;52.822;6.666;2022-10-16T16:04:33;15.90;99.90
55211;DHT22;41082;52.822;6.666;2022-10-16T16:06:58;15.90;99.90
55211;DHT22;41082;52.822;6.666;2022-10-16T16:09:24;15.80;99.90
55211;DHT22;41082;52.822;6.666;2022-10-16T16:11:49;15.80;99.90
55211;DHT22;41082;52.822;6.666;2022-10-16T16:14:17;15.70;99.90
55211;DHT22;41082;52.822;6.666;2022-10-16T16:16:43;15.70;99.90
55211;DHT22;41082;52.822;6.666;2022-10-16T16:19:09;15.60;99.90
55211;DHT22;41082;52.822;6.666;2022-10-16T16:21:35;15.60;99.90
55211;DHT22;41082;52.822;6.666;2022-10-16T16:24:00;15.50;99.90
55211;DHT22;41082;52.822;6.666;2022-10-16T16:26:28;15.50;99.90
55211;DHT22;41082;52.822;6.666;2022-10-16T16:28:59;15.50;99.90
55211;DHT22;41082;52.822;6.666;2022-10-16T16:31:26;15.40;99.90
55211;DHT22;41082;52.822;6.666;2022-10-16T16:33:52;15.40;99.90
55211;DHT22;41082;52.822;6.666;2022-10-16T16:36:18;15.30;99.90
55211;DHT22;41082;52.822;6.666;2022-10-16T16:38:45;15.30;99.90
55211;DHT22;41082;52.822;6.666;2022-10-16T16:41:15;15.20;99.90
55211;DHT22;41082;52.822;6.666;2022-10-16T16:43:42;15.20;99.90
55211;DHT22;41082;52.822;6.666;2022-10-16T16:46:08;15.10;99.90
55211;DHT22;41082;52.822;6.666;2022-10-16T16:48:34;15.10;99.90
55211;DHT22;41082;52.822;6.666;2022-10-16T16:51:07;15.00;99.90
55211;DHT22;41082;52.822;6.666;2022-10-16T16:53:36;15.00;99.90
55211;DHT22;41082;52.822;6.666;2022-10-16T16:56:03;14.90;99.90
55211;DHT22;41082;52.822;6.666;2022-10-16T16:58:29;14.90;99.90
55211;DHT22;41082;52.822;6.666;2022-10-16T17:00:55;14.80;99.90
55211;DHT22;41082;52.822;6.666;2022-10-16T17:03:21;14.70;99.90
55211;DHT22;41082;52.822;6.666;2022-10-16T17:06:06;14.70;99.90
55211;DHT22;41082;52.822;6.666;2022-10-16T17:08:34;14.60;99.90
55211;DHT22;41082;52.822;6.666;2022-10-16T17:11:00;14.60;99.90
55211;DHT22;41082;52.822;6.666;2022-10-16T17:13:28;14.50;99.90
55211;DHT22;41082;52.822;6.666;2022-10-16T17:15:54;14.50;99.90
55211;DHT22;41082;52.822;6.666;2022-10-16T17:18:22;14.40;99.90
55211;DHT22;41082;52.822;6.666;2022-10-16T17:20:48;14.40;99.90
55211;DHT22;41082;52.822;6.666;2022-10-16T17:23:15;14.30;99.90
55211;DHT22;41082;52.822;6.666;2022-10-16T17:25:41;14.30;99.90
55211;DHT22;41082;52.822;6.666;2022-10-16T17:28:09;14.30;99.90
55211;DHT22;41082;52.822;6.666;2022-10-16T17:30:37;14.20;99.90
55211;DHT22;41082;52.822;6.666;2022-10-16T17:33:04;14.20;99.90
55211;DHT22;41082;52.822;6.666;2022-10-16T17:35:39;14.10;99.90
55211;DHT22;41082;52.822;6.666;2022-10-16T17:38:05;14.00;99.90
55211;DHT22;41082;52.822;6.666;2022-10-16T17:40:31;14.00;99.90
55211;DHT22;41082;52.822;6.666;2022-10-16T17:42:56;13.90;99.90
55211;DHT22;41082;52.822;6.666;2022-10-16T17:45:22;13.90;99.90